Time;durP1;ratioP1;P1;durP2;ratioP2;P2;SDS_P1;SDS_P2;PMS_P1;PMS_P2;Temp;Humidity;BMP_temperature;BMP_pressure;BME280_temperature;BME280_humidity;BME280_pressure;Samples;Min_cycle;Max_cycle;Signal;HPM_P1;HPM_P2
2021/06/24 00:01:17;;;;;;;5.63;1.85;;;25.40;96.70;;;;;;5023960;28;20454;-71
2021/06/24 00:03:47;;;;;;;3.72;1.95;;;25.30;96.70;;;;;;5023959;28;20076;-71
2021/06/24 00:06:17;;;;;;;4.20;1.80;;;25.30;96.70;;;;;;5022054;28;20048;-71
2021/06/24 00:08:52;;;;;;;5.38;2.10;;;25.20;96.70;;;;;;5027028;28;20061;-71
2021/06/24 00:11:22;;;;;;;4.75;2.10;;;25.30;96.70;;;;;;5026015;28;20550;-72
2021/06/24 00:13:51;;;;;;;4.72;1.92;;;25.40;96.70;;;;;;5007123;28;20551;-72
2021/06/24 00:16:21;;;;;;;4.30;1.70;;;25.30;96.70;;;;;;5021108;28;20525;-71
2021/06/24 00:18:52;;;;;;;4.18;1.67;;;25.30;96.70;;;;;;5025996;28;20062;-72
2021/06/24 00:21:22;;;;;;;4.95;1.95;;;25.20;96.70;;;;;;5028171;28;20037;-71
2021/06/24 00:23:52;;;;;;;3.90;1.75;;;25.20;96.70;;;;;;5024976;28;20135;-71
2021/06/24 00:26:21;;;;;;;6.55;2.15;;;25.20;96.70;;;;;;5019411;28;20041;-71
2021/06/24 00:28:51;;;;;;;6.95;1.85;;;25.10;96.70;;;;;;5023009;28;20084;-71
2021/06/24 00:31:21;;;;;;;5.07;1.88;;;25.00;96.70;;;;;;5019046;28;20535;-71
2021/06/24 00:33:51;;;;;;;3.95;1.75;;;25.10;96.70;;;;;;5021868;28;20286;-71
2021/06/24 00:36:20;;;;;;;3.72;1.95;;;25.20;96.70;;;;;;5025480;28;20835;-72
2021/06/24 00:38:49;;;;;;;5.65;2.15;;;25.10;96.70;;;;;;5021354;28;20107;-72
2021/06/24 00:41:20;;;;;;;6.97;2.33;;;24.90;96.70;;;;;;5018358;28;20504;-71
2021/06/24 00:43:51;;;;;;;7.10;2.72;;;24.80;96.70;;;;;;5030744;28;20069;-71
2021/06/24 00:46:21;;;;;;;4.57;2.05;;;24.70;96.70;;;;;;5020117;28;20040;-71
2021/06/24 00:48:59;;;;;;;5.55;2.22;;;24.70;96.70;;;;;;5023467;28;20034;-72
2021/06/24 00:51:29;;;;;;;6.55;2.67;;;24.70;96.70;;;;;;5024592;28;20041;-71
2021/06/24 00:54:00;;;;;;;5.82;2.40;;;24.70;96.70;;;;;;5025808;28;20081;-71
2021/06/24 00:56:33;;;;;;;4.95;2.53;;;24.80;96.70;;;;;;5025339;28;20064;-71
2021/06/24 00:59:04;;;;;;;5.38;2.28;;;24.80;96.70;;;;;;5026764;28;20045;-71
2021/06/24 01:01:36;;;;;;;5.95;2.08;;;24.80;96.70;;;;;;5025458;28;20037;-72
2021/06/24 01:04:08;;;;;;;4.43;2.40;;;24.70;96.70;;;;;;5026259;28;20056;-71
2021/06/24 01:06:38;;;;;;;5.40;1.98;;;24.70;96.70;;;;;;5022311;28;20305;-71
2021/06/24 01:09:07;;;;;;;6.85;2.42;;;24.80;96.70;;;;;;5014151;28;20034;-71
2021/06/24 01:11:40;;;;;;;5.68;1.92;;;24.70;96.70;;;;;;5021872;28;20094;-72
2021/06/24 01:14:18;;;;;;;8.65;2.65;;;24.70;96.70;;;;;;5024975;28;20049;-72
2021/06/24 01:17:01;;;;;;;6.38;2.30;;;24.80;96.70;;;;;;5023151;28;20045;-73
2021/06/24 01:19:36;;;;;;;4.60;1.88;;;24.80;96.70;;;;;;5008030;28;20049;-73
2021/06/24 01:22:05;;;;;;;4.03;1.98;;;24.70;96.70;;;;;;5024095;28;20041;-73
2021/06/24 01:24:36;;;;;;;4.65;1.70;;;24.60;96.70;;;;;;5015054;28;20045;-72
2021/06/24 01:27:06;;;;;;;5.30;2.25;;;24.60;96.70;;;;;;5021314;28;20087;-72
2021/06/24 01:29:36;;;;;;;6.88;1.90;;;24.60;96.70;;;;;;4998856;28;20079;-72
2021/06/24 01:32:07;;;;;;;6.45;1.98;;;24.60;96.70;;;;;;5021859;28;20070;-73
2021/06/24 01:34:38;;;;;;;7.28;2.58;;;24.50;96.70;;;;;;5023125;28;20141;-73
2021/06/24 01:37:08;;;;;;;7.55;2.33;;;24.30;96.70;;;;;;5018360;28;20549;-73
2021/06/24 01:39:40;;;;;;;6.38;2.40;;;24.20;96.70;;;;;;5024469;28;20050;-72
2021/06/24 01:45:52;;;;;;;5.90;2.13;;;24.10;96.70;;;;;;5022979;28;20044;-72
2021/06/24 01:48:24;;;;;;;4.97;2.08;;;23.90;96.70;;;;;;5027219;28;20036;-72
2021/06/24 01:50:56;;;;;;;6.00;1.90;;;23.80;96.70;;;;;;5021672;28;20049;-72
2021/06/24 01:53:26;;;;;;;4.80;1.92;;;23.70;96.70;;;;;;5020896;28;20048;-72
2021/06/24 01:56:01;;;;;;;5.80;1.98;;;23.70;96.70;;;;;;5023008;28;20045;-72
2021/06/24 01:58:36;;;;;;;4.40;1.85;;;23.90;96.70;;;;;;5021325;28;20120;-72
2021/06/24 02:01:21;;;;;;;5.57;1.98;;;23.90;96.70;;;;;;5023525;28;20067;-72
2021/06/24 02:04:01;;;;;;;6.30;2.17;;;23.90;96.70;;;;;;5019139;28;20053;-71
2021/06/24 02:06:30;;;;;;;5.82;2.30;;;24.00;96.70;;;;;;5024762;28;20529;-71
2021/06/24 02:09:09;;;;;;;3.75;1.67;;;24.10;96.70;;;;;;5014052;28;20056;-72
2021/06/24 02:12:02;;;;;;;5.78;1.85;;;24.00;96.70;;;;;;5022348;28;20146;-71
2021/06/24 02:14:44;;;;;;;3.63;1.80;;;24.00;96.70;;;;;;5002411;28;20069;-71
2021/06/24 02:17:13;;;;;;;8.00;2.38;;;23.80;96.70;;;;;;5015282;28;20100;-72
2021/06/24 02:19:45;;;;;;;3.92;2.05;;;23.90;96.70;;;;;;5020186;28;20034;-72
2021/06/24 02:22:44;;;;;;;6.60;1.92;;;23.90;96.70;;;;;;5010882;28;20046;-72
2021/06/24 02:25:18;;;;;;;4.32;1.85;;;23.90;96.70;;;;;;5015313;28;20041;-72
2021/06/24 02:28:06;;;;;;;3.05;1.70;;;23.90;96.70;;;;;;5015734;28;20553;-72
2021/06/24 02:30:50;;;;;;;5.18;2.10;;;24.00;96.70;;;;;;5022534;28;20908;-72
2021/06/24 02:33:20;;;;;;;3.92;2.22;;;24.00;96.70;;;;;;5027984;28;20041;-72
2021/06/24 02:35:59;;;;;;;6.30;1.70;;;23.90;96.70;;;;;;5018415;28;20073;-71
2021/06/24 02:38:36;;;;;;;5.30;2.30;;;24.00;96.70;;;;;;5019469;28;20292;-72
2021/06/24 02:41:06;;;;;;;5.50;2.30;;;24.00;96.70;;;;;;5015605;28;20039;-72
2021/06/24 02:43:40;;;;;;;3.42;2.03;;;24.00;96.70;;;;;;5025384;28;20049;-72
2021/06/24 02:46:11;;;;;;;3.88;2.10;;;23.90;96.70;;;;;;5020645;28;20073;-72
2021/06/24 02:48:45;;;;;;;5.10;2.20;;;23.90;96.70;;;;;;5020025;28;20050;-72
2021/06/24 02:51:18;;;;;;;6.88;2.03;;;23.90;96.70;;;;;;5017727;28;20037;-72
2021/06/24 02:54:16;;;;;;;6.75;2.33;;;23.90;96.70;;;;;;4969592;28;20529;-72
2021/06/24 02:56:50;;;;;;;3.00;1.73;;;23.90;96.70;;;;;;4966324;28;20047;-72
2021/06/24 02:59:44;;;;;;;6.18;1.80;;;23.90;96.70;;;;;;4926679;28;20057;-72
2021/06/24 03:02:15;;;;;;;6.82;2.00;;;23.90;96.70;;;;;;4967988;28;20042;-72
2021/06/24 03:04:45;;;;;;;4.47;1.73;;;23.90;96.70;;;;;;4951688;28;20055;-72
2021/06/24 03:07:15;;;;;;;3.08;1.85;;;23.80;96.70;;;;;;4963994;28;20075;-72
2021/06/24 03:10:06;;;;;;;4.53;2.00;;;23.80;96.70;;;;;;4963838;28;20062;-72
2021/06/24 03:12:42;;;;;;;4.00;1.98;;;23.70;96.70;;;;;;4968423;28;20583;-72
2021/06/24 03:15:37;;;;;;;4.13;1.83;;;23.70;96.70;;;;;;4967845;28;20662;-72
2021/06/24 03:18:08;;;;;;;5.68;2.20;;;23.70;96.70;;;;;;4968004;28;20054;-72
2021/06/24 03:20:37;;;;;;;2.42;1.65;;;23.60;96.70;;;;;;4946658;28;20050;-72
2021/06/24 03:23:11;;;;;;;4.97;2.00;;;23.60;96.70;;;;;;4951637;28;20580;-73
2021/06/24 03:25:54;;;;;;;3.35;1.73;;;23.50;96.70;;;;;;4968593;28;20039;-73
2021/06/24 03:28:27;;;;;;;4.38;1.85;;;23.40;96.70;;;;;;4951991;28;20046;-73
2021/06/24 03:31:15;;;;;;;6.00;2.38;;;23.40;96.70;;;;;;5005992;28;20045;-73
2021/06/24 03:33:45;;;;;;;4.30;2.10;;;23.40;96.70;;;;;;5028437;28;20406;-73
2021/06/24 03:36:17;;;;;;;5.25;1.92;;;23.40;96.70;;;;;;5023472;28;20069;-73
2021/06/24 03:38:48;;;;;;;3.88;1.63;;;23.30;96.70;;;;;;5027752;28;20046;-73
2021/06/24 03:41:26;;;;;;;5.90;2.25;;;23.30;96.70;;;;;;5020172;28;20463;-74
2021/06/24 03:43:59;;;;;;;5.15;2.17;;;23.40;96.70;;;;;;5020466;28;20133;-73
2021/06/24 03:46:36;;;;;;;3.60;2.10;;;23.40;96.70;;;;;;5021938;28;20038;-73
2021/06/24 03:49:06;;;;;;;7.70;3.13;;;23.30;96.70;;;;;;5019050;28;20045;-73
2021/06/24 03:51:39;;;;;;;5.80;2.67;;;23.40;96.70;;;;;;5008827;28;20115;-73
2021/06/24 03:54:07;;;;;;;4.07;2.60;;;23.40;96.70;;;;;;5007392;28;20073;-73
2021/06/24 03:56:39;;;;;;;5.65;3.15;;;23.50;96.70;;;;;;5021882;28;20072;-72
2021/06/24 03:59:19;;;;;;;5.75;2.75;;;23.50;96.70;;;;;;5023767;28;20143;-73
2021/06/24 04:01:56;;;;;;;4.32;3.17;;;23.30;96.70;;;;;;5023349;28;20046;-73
2021/06/24 04:04:27;;;;;;;7.68;3.00;;;23.30;96.70;;;;;;5025711;28;20052;-73
2021/06/24 04:06:57;;;;;;;5.72;2.45;;;23.30;96.70;;;;;;5009625;28;20521;-73
2021/06/24 04:09:28;;;;;;;4.72;2.28;;;23.30;96.70;;;;;;5018909;28;20041;-73
2021/06/24 04:11:58;;;;;;;7.45;2.72;;;23.10;96.70;;;;;;5023615;28;20045;-73
2021/06/24 04:14:49;;;;;;;5.32;2.78;;;23.00;96.70;;;;;;5023271;28;20160;-74
2021/06/24 04:17:36;;;;;;;4.20;2.40;;;23.10;96.70;;;;;;5004896;28;20419;-73
2021/06/24 04:20:08;;;;;;;4.38;2.50;;;23.10;96.70;;;;;;5024952;28;20048;-73
2021/06/24 04:22:42;;;;;;;4.72;2.22;;;23.30;96.70;;;;;;5023768;28;20038;-73
2021/06/24 04:25:14;;;;;;;4.13;2.47;;;23.30;96.70;;;;;;5024197;28;20136;-73
2021/06/24 04:27:55;;;;;;;5.53;2.55;;;23.30;96.70;;;;;;5022925;28;20033;-73
2021/06/24 04:30:27;;;;;;;3.20;2.65;;;23.10;96.70;;;;;;5015601;28;20487;-73
2021/06/24 04:32:59;;;;;;;4.88;2.97;;;23.10;96.70;;;;;;5028670;28;20055;-73
2021/06/24 04:35:39;;;;;;;4.00;2.40;;;23.20;96.70;;;;;;5020355;28;20050;-73
2021/06/24 04:38:18;;;;;;;6.18;2.63;;;23.30;96.70;;;;;;5012380;28;20049;-73
2021/06/24 04:40:51;;;;;;;3.60;2.30;;;23.20;96.70;;;;;;5016666;28;20071;-73
2021/06/24 04:43:23;;;;;;;4.97;2.60;;;23.10;96.70;;;;;;5034027;28;20033;-73
2021/06/24 04:45:52;;;;;;;134.23;103.40;;;23.10;96.70;;;;;;5024191;28;20041;-73
2021/06/24 04:48:23;;;;;;;33.40;26.10;;;23.20;96.70;;;;;;5020238;28;20083;-73
2021/06/24 04:51:14;;;;;;;19.92;11.20;;;23.30;96.70;;;;;;5020680;28;20118;-74
2021/06/24 04:53:42;;;;;;;10.85;7.47;;;23.30;96.70;;;;;;5017327;28;20046;-73
2021/06/24 04:56:18;;;;;;;7.35;5.05;;;23.40;96.70;;;;;;5025810;28;20044;-74
2021/06/24 04:58:47;;;;;;;10.60;4.25;;;23.50;96.70;;;;;;5027677;28;20509;-74
2021/06/24 05:01:33;;;;;;;;;;;23.50;96.70;;;;;;5023994;28;20085;-74
2021/06/24 05:04:23;;;;;;;7.60;3.53;;;23.40;96.70;;;;;;4984926;28;19925;-73
2021/06/24 05:06:55;;;;;;;6.93;3.13;;;23.50;96.70;;;;;;5019636;28;20044;-74
2021/06/24 05:09:28;;;;;;;5.95;3.38;;;23.50;96.70;;;;;;5020614;28;20404;-73
2021/06/24 05:11:56;;;;;;;7.13;3.30;;;23.50;96.70;;;;;;5021796;28;20056;-73
2021/06/24 05:14:25;;;;;;;6.40;3.10;;;23.50;96.70;;;;;;5026407;28;20048;-73
2021/06/24 05:16:53;;;;;;;11.30;5.00;;;23.40;96.70;;;;;;5012495;28;20097;-74
2021/06/24 05:19:23;;;;;;;10.57;6.50;;;23.60;96.70;;;;;;5020738;28;20099;-73
2021/06/24 05:21:51;;;;;;;8.70;4.82;;;23.70;96.70;;;;;;5024960;28;20033;-73
2021/06/24 05:24:20;;;;;;;5.82;3.92;;;23.80;96.70;;;;;;5025014;28;20034;-73
2021/06/24 05:26:48;;;;;;;9.15;4.15;;;23.90;96.70;;;;;;5023308;28;20392;-73
2021/06/24 05:29:16;;;;;;;6.55;3.45;;;23.90;96.70;;;;;;5019043;28;20104;-74
2021/06/24 05:31:45;;;;;;;5.88;3.40;;;23.70;96.70;;;;;;5020096;28;20743;-73
2021/06/24 05:34:13;;;;;;;6.65;3.38;;;23.70;96.70;;;;;;5032740;28;20045;-74
2021/06/24 05:36:43;;;;;;;5.40;3.30;;;23.80;96.70;;;;;;5024391;28;20046;-74
2021/06/24 05:39:12;;;;;;;6.57;3.67;;;23.90;96.70;;;;;;5019077;28;20048;-74
2021/06/24 05:41:40;;;;;;;9.93;4.85;;;24.00;96.70;;;;;;5021641;28;20033;-74
2021/06/24 05:44:08;;;;;;;5.72;3.90;;;23.90;96.70;;;;;;5019837;28;20037;-73
2021/06/24 05:46:37;;;;;;;7.15;3.45;;;23.80;96.70;;;;;;5018793;28;20053;-73
2021/06/24 05:49:05;;;;;;;6.43;3.60;;;23.80;96.70;;;;;;5019583;28;20049;-73
2021/06/24 05:51:34;;;;;;;6.93;4.13;;;23.80;96.70;;;;;;5022696;28;20042;-73
2021/06/24 05:54:04;;;;;;;5.75;3.60;;;23.80;96.70;;;;;;5022308;28;20037;-74
2021/06/24 05:56:33;;;;;;;9.77;3.53;;;23.80;96.70;;;;;;5019741;28;20049;-73
2021/06/24 05:59:03;;;;;;;9.10;3.53;;;24.00;96.70;;;;;;5018931;28;20608;-74
2021/06/24 06:01:31;;;;;;;5.88;3.67;;;24.10;96.70;;;;;;5022810;28;20048;-74
2021/06/24 06:04:00;;;;;;;10.93;5.03;;;24.10;96.70;;;;;;5022310;28;20565;-73
2021/06/24 06:06:28;;;;;;;8.43;4.40;;;24.20;96.70;;;;;;5028459;28;20037;-73
2021/06/24 06:08:56;;;;;;;9.38;4.60;;;24.10;96.70;;;;;;5024469;28;20037;-74
2021/06/24 06:11:26;;;;;;;7.95;4.53;;;24.20;96.70;;;;;;5024269;28;20566;-74
2021/06/24 06:13:54;;;;;;;9.07;4.00;;;24.20;96.70;;;;;;5016058;28;20335;-74
2021/06/24 06:16:23;;;;;;;7.63;3.70;;;24.40;96.70;;;;;;5025295;28;20489;-74
2021/06/24 06:18:52;;;;;;;8.13;4.45;;;24.50;96.70;;;;;;5020619;28;20049;-74
2021/06/24 06:21:21;;;;;;;6.20;4.18;;;24.60;96.70;;;;;;5024117;28;20075;-74
2021/06/24 06:23:50;;;;;;;5.80;3.58;;;24.60;96.70;;;;;;5018201;28;20034;-74
2021/06/24 06:26:18;;;;;;;6.43;4.18;;;24.60;96.70;;;;;;5026835;28;20044;-74
2021/06/24 06:28:48;;;;;;;10.68;5.22;;;24.70;96.70;;;;;;5024756;28;20067;-74
2021/06/24 06:31:17;;;;;;;7.78;4.43;;;24.70;96.70;;;;;;5025228;28;20037;-74
2021/06/24 06:33:45;;;;;;;7.45;5.13;;;24.70;96.70;;;;;;5024488;28;20038;-75
2021/06/24 06:36:14;;;;;;;11.23;5.22;;;24.80;96.70;;;;;;5020190;28;20497;-74
2021/06/24 06:38:42;;;;;;;13.45;5.95;;;24.80;96.70;;;;;;5025979;28;20416;-74
2021/06/24 06:41:11;;;;;;;12.43;5.72;;;24.80;96.70;;;;;;5019998;28;20130;-75
2021/06/24 06:43:39;;;;;;;10.32;5.45;;;24.80;96.70;;;;;;5027056;28;20073;-74
2021/06/24 06:46:09;;;;;;;12.68;5.68;;;24.90;96.70;;;;;;5023895;28;20048;-74
2021/06/24 06:48:37;;;;;;;14.88;6.72;;;25.00;96.70;;;;;;5029102;28;20512;-74
2021/06/24 06:51:06;;;;;;;14.40;7.68;;;25.10;96.70;;;;;;5023982;28;20091;-74
2021/06/24 06:53:34;;;;;;;15.23;8.32;;;25.10;96.70;;;;;;5022024;28;20045;-75
2021/06/24 06:56:03;;;;;;;11.65;7.93;;;25.10;96.70;;;;;;5025576;28;20044;-75
2021/06/24 06:58:31;;;;;;;11.63;7.00;;;25.20;96.70;;;;;;5025170;28;20045;-75
2021/06/24 07:01:00;;;;;;;12.50;6.60;;;25.20;96.70;;;;;;5027787;28;20060;-75
2021/06/24 07:03:30;;;;;;;11.48;6.72;;;25.20;96.70;;;;;;5016551;28;20387;-74
2021/06/24 07:05:59;;;;;;;9.40;5.07;;;25.10;96.70;;;;;;5023515;28;20045;-74
2021/06/24 07:08:27;;;;;;;9.63;5.15;;;25.10;96.70;;;;;;5022578;28;20040;-74
2021/06/24 07:10:55;;;;;;;7.93;5.18;;;25.20;96.70;;;;;;5026151;28;20057;-73
2021/06/24 07:13:24;;;;;;;9.88;4.22;;;25.10;96.70;;;;;;5026938;28;20268;-74
2021/06/24 07:15:56;;;;;;;5.72;3.60;;;25.20;96.70;;;;;;5023790;28;20053;-74
2021/06/24 07:18:25;;;;;;;7.03;4.10;;;25.20;96.70;;;;;;5019552;28;20075;-74
2021/06/24 07:20:59;;;;;;;9.73;4.47;;;25.10;96.70;;;;;;5025428;28;20548;-74
2021/06/24 07:23:28;;;;;;;5.80;4.05;;;25.10;96.70;;;;;;5023754;28;20038;-74
2021/06/24 07:25:56;;;;;;;9.55;4.13;;;25.10;96.70;;;;;;5024846;28;20506;-74
2021/06/24 07:28:25;;;;;;;8.45;4.97;;;25.10;96.70;;;;;;5020930;28;20103;-74
2021/06/24 07:30:53;;;;;;;6.95;3.97;;;25.20;96.70;;;;;;5022419;28;20045;-74
2021/06/24 07:33:22;;;;;;;7.38;4.20;;;25.30;96.70;;;;;;5020716;28;20056;-74
2021/06/24 07:35:50;;;;;;;7.43;3.38;;;25.40;96.70;;;;;;5022731;28;20041;-74
2021/06/24 07:38:20;;;;;;;8.57;3.55;;;25.40;96.70;;;;;;5000817;28;20052;-74
2021/06/24 07:40:49;;;;;;;6.13;3.60;;;25.40;96.70;;;;;;5021418;28;20033;-74
2021/06/24 07:43:17;;;;;;;11.27;4.30;;;25.50;96.70;;;;;;5026468;28;20480;-74
2021/06/24 07:45:46;;;;;;;8.05;3.63;;;25.50;96.70;;;;;;5025502;28;20037;-75
2021/06/24 07:48:14;;;;;;;10.27;3.65;;;25.60;96.70;;;;;;5027164;28;20044;-82
2021/06/24 07:50:43;;;;;;;5.75;3.33;;;25.70;96.70;;;;;;5019783;28;20442;-73
2021/06/24 07:53:13;;;;;;;5.00;3.25;;;25.70;96.70;;;;;;5027150;28;20045;-74
2021/06/24 07:55:43;;;;;;;8.02;3.85;;;25.80;96.70;;;;;;5022822;28;20076;-76
2021/06/24 07:58:12;;;;;;;6.60;3.30;;;25.70;96.70;;;;;;5014881;28;20209;-75
2021/06/24 08:00:41;;;;;;;7.45;3.40;;;25.80;96.70;;;;;;5022860;28;20062;-75
2021/06/24 08:03:27;;;;;;;7.25;3.20;;;25.80;96.70;;;;;;5020758;28;20037;-76
2021/06/24 08:05:56;;;;;;;10.32;3.97;;;26.00;96.70;;;;;;5025241;28;20132;-76
2021/06/24 08:08:25;;;;;;;6.70;3.03;;;26.00;96.70;;;;;;5034079;28;20346;-77
2021/06/24 08:10:56;;;;;;;7.70;3.33;;;26.10;96.70;;;;;;5003133;28;20576;-75
2021/06/24 08:13:28;;;;;;;4.80;2.70;;;26.10;96.70;;;;;;5024939;28;20045;-75
2021/06/24 08:15:58;;;;;;;5.68;2.63;;;26.10;96.70;;;;;;5018361;28;20045;-75
2021/06/24 08:18:29;;;;;;;5.03;3.35;;;26.20;96.70;;;;;;5018868;28;20033;-75
2021/06/24 08:20:57;;;;;;;6.97;3.28;;;26.20;96.70;;;;;;5025872;28;20073;-73
2021/06/24 08:23:25;;;;;;;7.38;3.47;;;26.30;96.70;;;;;;5023611;28;20447;-75
2021/06/24 08:25:55;;;;;;;6.15;3.17;;;26.30;96.70;;;;;;5024268;28;20052;-73
2021/06/24 08:28:24;;;;;;;5.82;2.95;;;26.50;96.70;;;;;;5030507;28;20063;-73
2021/06/24 08:30:54;;;;;;;6.93;2.90;;;26.50;96.70;;;;;;5017323;28;20052;-73
2021/06/24 08:33:23;;;;;;;7.40;3.03;;;26.60;96.70;;;;;;5017850;28;20037;-73
2021/06/24 08:35:52;;;;;;;8.07;2.97;;;26.70;96.70;;;;;;5026269;28;20037;-72
2021/06/24 08:38:20;;;;;;;3.65;2.53;;;26.80;96.70;;;;;;5019398;28;20411;-73
2021/06/24 08:41:01;;;;;;;4.50;3.05;;;26.90;96.70;;;;;;5029015;28;20492;-73
2021/06/24 08:43:32;;;;;;;4.10;2.22;;;27.10;96.70;;;;;;5016334;28;20041;-74
2021/06/24 08:46:01;;;;;;;6.72;2.40;;;27.00;96.70;;;;;;5024569;28;20479;-74
2021/06/24 08:48:33;;;;;;;6.97;2.85;;;27.10;96.70;;;;;;5009259;28;20045;-74
2021/06/24 08:51:06;;;;;;;7.50;2.67;;;27.10;96.70;;;;;;5006019;28;20037;-74
2021/06/24 08:53:34;;;;;;;8.60;2.90;;;27.30;96.70;;;;;;5025477;28;20052;-74
2021/06/24 08:56:06;;;;;;;6.28;2.80;;;27.40;96.70;;;;;;5026174;28;20107;-74
2021/06/24 08:58:35;;;;;;;5.63;2.92;;;27.50;96.70;;;;;;5018151;28;20042;-74
2021/06/24 09:01:03;;;;;;;7.22;2.65;;;27.60;96.70;;;;;;5014875;28;20054;-75
2021/06/24 09:03:40;;;;;;;7.22;2.13;;;27.50;96.60;;;;;;5017786;28;20046;-75
2021/06/24 09:06:09;;;;;;;7.00;2.80;;;27.60;94.50;;;;;;5023883;28;20040;-75
2021/06/24 09:08:40;;;;;;;5.05;1.85;;;27.70;92.80;;;;;;5003019;28;20466;-75
2021/06/24 09:11:21;;;;;;;6.57;2.20;;;27.70;92.40;;;;;;5018517;28;20038;-73
2021/06/24 09:14:02;;;;;;;6.15;2.05;;;27.80;92.30;;;;;;5019642;28;20384;-74
2021/06/24 09:16:32;;;;;;;6.13;2.08;;;27.80;92.20;;;;;;5017393;28;20099;-75
2021/06/24 09:19:16;;;;;;;4.32;1.77;;;28.00;93.20;;;;;;5023338;28;20078;-75
2021/06/24 09:21:48;;;;;;;5.05;2.08;;;28.00;92.90;;;;;;5018338;28;20054;-75
2021/06/24 09:24:26;;;;;;;3.97;1.80;;;28.20;93.10;;;;;;5025477;28;20046;-76
2021/06/24 09:26:57;;;;;;;5.93;1.70;;;28.40;91.40;;;;;;5025002;28;20057;-73
2021/06/24 09:29:26;;;;;;;6.85;1.88;;;28.50;88.50;;;;;;5021130;28;20045;-73
2021/06/24 09:31:56;;;;;;;3.33;1.50;;;28.70;89.20;;;;;;5020270;28;20441;-74
2021/06/24 09:34:25;;;;;;;3.60;1.23;;;28.80;89.50;;;;;;5022156;28;20454;-74
2021/06/24 09:36:58;;;;;;;3.22;1.70;;;28.90;89.40;;;;;;5020657;28;20381;-74
2021/06/24 09:39:32;;;;;;;3.03;1.65;;;29.00;90.30;;;;;;5027292;28;20072;-73
2021/06/24 09:42:05;;;;;;;5.35;1.25;;;29.30;89.30;;;;;;5026254;28;20052;-75
2021/06/24 09:44:36;;;;;;;5.47;1.95;;;29.40;86.20;;;;;;5024836;28;20407;-74
2021/06/24 09:47:18;;;;;;;3.03;1.08;;;29.30;84.50;;;;;;5017631;28;20057;-74
2021/06/24 09:49:58;;;;;;;4.50;1.50;;;29.10;84.30;;;;;;5025024;28;20051;-73
2021/06/24 09:52:27;;;;;;;3.65;1.30;;;29.20;84.90;;;;;;5021156;28;20151;-74
2021/06/24 09:55:04;;;;;;;4.93;1.17;;;29.20;84.90;;;;;;5021374;28;20040;-74
2021/06/24 09:57:36;;;;;;;2.80;1.33;;;29.30;83.40;;;;;;5023888;28;20112;-73
2021/06/24 10:00:21;;;;;;;3.97;1.10;;;29.30;82.20;;;;;;5018248;28;20088;-73
2021/06/24 10:03:07;;;;;;;5.57;1.33;;;29.30;82.90;;;;;;5004005;28;20049;-73
2021/06/24 10:05:36;;;;;;;3.90;1.40;;;29.20;82.90;;;;;;5020679;28;20053;-73
2021/06/24 10:08:05;;;;;;;11.88;2.30;;;29.20;85.20;;;;;;5021086;28;20042;-74
2021/06/24 10:10:34;;;;;;;4.30;1.15;;;29.20;85.50;;;;;;5017697;28;20125;-74
2021/06/24 10:13:05;;;;;;;5.68;1.42;;;29.30;85.40;;;;;;5017056;28;20522;-74
2021/06/24 10:15:35;;;;;;;5.20;1.80;;;29.30;85.90;;;;;;5022016;28;20044;-74
2021/06/24 10:18:04;;;;;;;5.93;1.48;;;29.50;87.90;;;;;;5021146;28;20128;-74
2021/06/24 10:20:34;;;;;;;5.75;1.80;;;29.60;88.60;;;;;;5018226;28;20419;-74
2021/06/24 10:23:08;;;;;;;6.30;1.50;;;29.60;89.00;;;;;;5017312;28;20111;-74
2021/06/24 10:25:38;;;;;;;4.75;1.42;;;29.60;89.10;;;;;;5018672;28;20507;-74
2021/06/24 10:28:10;;;;;;;4.57;1.38;;;29.50;88.60;;;;;;5016483;28;20125;-74
2021/06/24 10:30:40;;;;;;;2.33;1.40;;;29.60;88.50;;;;;;5034001;28;20046;-74
2021/06/24 10:33:12;;;;;;;2.47;1.40;;;29.90;88.80;;;;;;5021595;28;20276;-74
2021/06/24 10:35:42;;;;;;;4.97;1.63;;;30.00;88.30;;;;;;5018981;28;20507;-74
2021/06/24 10:38:13;;;;;;;3.83;1.30;;;30.10;88.30;;;;;;5012683;28;20483;-74
2021/06/24 10:40:42;;;;;;;1.80;1.05;;;30.10;87.90;;;;;;5029506;28;20053;-74
2021/06/24 10:43:14;;;;;;;3.92;1.00;;;30.10;87.30;;;;;;4978188;28;20037;-74
2021/06/24 10:45:43;;;;;;;3.60;0.90;;;29.90;87.80;;;;;;4973585;28;20053;-74
2021/06/24 10:48:24;;;;;;;3.72;1.20;;;30.00;87.20;;;;;;5007447;28;20052;-74
2021/06/24 10:51:01;;;;;;;2.33;0.82;;;30.20;87.00;;;;;;5020842;28;20049;-75
2021/06/24 10:53:59;;;;;;;2.95;0.98;;;30.40;87.50;;;;;;5019065;28;20048;-75
2021/06/24 10:56:31;;;;;;;;;;;30.40;88.00;;;;;;5019811;28;20042;-75
2021/06/24 10:59:21;;;;;;;1.55;0.60;;;30.20;89.40;;;;;;5024996;28;19943;-76
2021/06/24 11:01:50;;;;;;;5.00;1.60;;;30.10;89.40;;;;;;5002626;28;20049;-75
2021/06/24 11:04:29;;;;;;;2.33;1.02;;;30.10;89.20;;;;;;5021541;28;20044;-76
2021/06/24 11:07:05;;;;;;;5.00;1.30;;;30.30;88.60;;;;;;5016602;28;20572;-74
2021/06/24 11:09:35;;;;;;;;;;;30.40;88.30;;;;;;5022414;28;20041;-74
2021/06/24 11:12:05;;;;;;;4.35;0.98;;;30.40;88.30;;;;;;5019288;28;19932;-74
2021/06/24 11:14:57;;;;;;;3.55;1.00;;;30.30;87.90;;;;;;5020399;28;20131;-75
2021/06/24 11:17:49;;;;;;;2.75;1.30;;;30.20;86.80;;;;;;5002724;28;20065;-75
2021/06/24 11:20:20;;;;;;;2.83;0.77;;;30.40;86.30;;;;;;5022724;28;20061;-75
2021/06/24 11:22:51;;;;;;;3.70;1.20;;;30.50;87.40;;;;;;5010221;28;20530;-75
2021/06/24 11:25:20;;;;;;;2.85;0.90;;;30.70;86.90;;;;;;5019952;28;20045;-75
2021/06/24 11:27:48;;;;;;;2.17;0.90;;;30.70;85.70;;;;;;5018795;28;20686;-75
2021/06/24 11:30:58;;;;;;;4.85;1.15;;;30.60;85.70;;;;;;5028623;28;20048;-76
2021/06/24 11:33:28;;;;;;;3.83;1.13;;;30.60;86.10;;;;;;5020704;28;20049;-76
2021/06/24 11:36:11;;;;;;;2.40;1.15;;;30.50;86.00;;;;;;5026129;28;20160;-76
2021/06/24 11:38:47;;;;;;;3.33;1.10;;;30.50;85.80;;;;;;5032276;28;20121;-76
2021/06/24 11:41:16;;;;;;;3.85;1.25;;;30.50;85.00;;;;;;5020293;28;20460;-75
2021/06/24 11:43:58;;;;;;;2.35;0.90;;;30.70;85.60;;;;;;5023990;28;20044;-75
2021/06/24 11:46:29;;;;;;;2.10;0.80;;;30.70;85.80;;;;;;5025195;28;20434;-75
2021/06/24 11:49:25;;;;;;;3.90;0.70;;;30.60;85.40;;;;;;5029737;28;20072;-76
2021/06/24 12:00:42;;;;;;;1.48;0.73;;;30.50;85.00;;;;;;5021676;28;20463;-75
2021/06/24 12:03:20;;;;;;;1.77;0.73;;;30.80;84.20;;;;;;5016270;28;20042;-76
2021/06/24 12:05:52;;;;;;;3.85;0.82;;;31.00;83.50;;;;;;5017697;28;20045;-75
2021/06/24 12:08:22;;;;;;;3.80;1.15;;;31.00;82.50;;;;;;5027624;28;20037;-75
2021/06/24 12:11:02;;;;;;;1.73;0.65;;;31.00;82.90;;;;;;5023665;28;20079;-75
2021/06/24 12:13:32;;;;;;;2.83;0.98;;;31.10;83.10;;;;;;5021201;28;20125;-76
2021/06/24 12:16:00;;;;;;;5.07;1.08;;;30.70;82.80;;;;;;5023200;28;20557;-76
2021/06/24 12:18:38;;;;;;;4.07;0.70;;;30.70;82.80;;;;;;5015347;28;20068;-77
2021/06/24 12:21:09;;;;;;;2.97;0.70;;;30.80;82.60;;;;;;5033269;28;21350;-77
2021/06/24 12:23:39;;;;;;;2.72;0.70;;;30.90;82.40;;;;;;5022603;28;20622;-77
2021/06/24 12:26:08;;;;;;;1.75;0.82;;;31.00;81.80;;;;;;5026461;28;20079;-77
2021/06/24 12:28:36;;;;;;;1.45;0.95;;;31.20;81.50;;;;;;5023763;28;20049;-77
2021/06/24 12:31:08;;;;;;;3.42;1.15;;;31.20;81.70;;;;;;5024663;28;20437;-76
2021/06/24 12:33:38;;;;;;;5.00;1.10;;;30.90;80.80;;;;;;5022779;28;20077;-76
2021/06/24 12:36:07;;;;;;;2.60;0.80;;;31.00;80.70;;;;;;5023541;28;20148;-76
2021/06/24 12:38:36;;;;;;;2.88;0.90;;;30.90;80.50;;;;;;5020813;28;20518;-76
2021/06/24 12:41:09;;;;;;;6.35;1.13;;;30.80;81.40;;;;;;5018226;28;20657;-75
2021/06/24 12:43:38;;;;;;;3.83;1.05;;;30.70;81.20;;;;;;5022729;28;20568;-76
2021/06/24 12:46:08;;;;;;;4.32;0.90;;;30.70;81.70;;;;;;5022507;28;20388;-76
2021/06/24 12:48:39;;;;;;;3.22;0.60;;;30.90;82.10;;;;;;5019731;28;20380;-76
2021/06/24 12:51:22;;;;;;;4.75;1.08;;;31.00;81.30;;;;;;5021288;28;20095;-76
2021/06/24 12:53:54;;;;;;;1.50;0.68;;;30.90;80.20;;;;;;5006308;28;20461;-75
2021/06/24 12:56:24;;;;;;;4.28;0.95;;;31.10;80.30;;;;;;5018946;28;20132;-76
2021/06/24 12:58:53;;;;;;;1.45;0.80;;;31.30;79.80;;;;;;5021803;28;20061;-76
2021/06/24 13:01:23;;;;;;;4.53;1.00;;;31.30;79.30;;;;;;5023729;28;20477;-76
2021/06/24 13:03:54;;;;;;;1.90;0.88;;;31.50;79.40;;;;;;5020651;28;20098;-75
2021/06/24 13:06:25;;;;;;;4.38;0.63;;;31.30;81.50;;;;;;5027567;28;20037;-76
2021/06/24 13:09:05;;;;;;;2.75;0.90;;;31.60;80.20;;;;;;5021109;28;20469;-76
2021/06/24 13:11:35;;;;;;;2.10;0.95;;;31.70;79.80;;;;;;5020090;28;20034;-76
2021/06/24 13:14:07;;;;;;;2.90;1.23;;;32.10;77.90;;;;;;5019393;28;20042;-76
2021/06/24 13:16:37;;;;;;;2.25;0.65;;;32.10;78.50;;;;;;5019231;28;20407;-76
2021/06/24 13:19:09;;;;;;;3.60;0.77;;;31.80;77.50;;;;;;5023835;28;20053;-75
2021/06/24 13:21:52;;;;;;;3.63;0.65;;;31.60;78.20;;;;;;5017449;28;20056;-76
2021/06/24 13:24:21;;;;;;;1.48;0.50;;;31.60;79.80;;;;;;5023238;28;20041;-76
2021/06/24 13:26:50;;;;;;;2.08;0.60;;;31.70;79.00;;;;;;5022972;28;20128;-76